sensor_id;sensor_type;location;lat;lon;timestamp;temperature;humidity
72206;DHT22;60111;48.286;7.812;2023-02-28T00:01:36;1.40;47.50
72206;DHT22;60111;48.286;7.812;2023-02-28T00:04:09;1.50;47.80
72206;DHT22;60111;48.286;7.812;2023-02-28T00:06:41;1.50;47.60
72206;DHT22;60111;48.286;7.812;2023-02-28T00:09:14;1.50;47.40
72206;DHT22;60111;48.286;7.812;2023-02-28T00:11:46;1.50;47.80
72206;DHT22;60111;48.286;7.812;2023-02-28T00:14:19;1.50;48.20
72206;DHT22;60111;48.286;7.812;2023-02-28T00:16:51;1.50;48.00
72206;DHT22;60111;48.286;7.812;2023-02-28T00:19:24;1.40;48.30
72206;DHT22;60111;48.286;7.812;2023-02-28T00:21:56;1.30;48.60
72206;DHT22;60111;48.286;7.812;2023-02-28T00:24:29;1.20;48.90
72206;DHT22;60111;48.286;7.812;2023-02-28T00:27:02;1.20;48.90
72206;DHT22;60111;48.286;7.812;2023-02-28T00:29:34;1.20;49.20
72206;DHT22;60111;48.286;7.812;2023-02-28T00:32:07;1.10;49.50
72206;DHT22;60111;48.286;7.812;2023-02-28T00:34:39;1.20;49.60
72206;DHT22;60111;48.286;7.812;2023-02-28T00:37:13;1.10;49.40
72206;DHT22;60111;48.286;7.812;2023-02-28T00:39:45;1.10;49.80
72206;DHT22;60111;48.286;7.812;2023-02-28T00:42:18;1.10;50.10
72206;DHT22;60111;48.286;7.812;2023-02-28T00:44:51;1.10;49.90
72206;DHT22;60111;48.286;7.812;2023-02-28T00:47:23;1.10;50.10
72206;DHT22;60111;48.286;7.812;2023-02-28T00:49:56;1.10;50.30
72206;DHT22;60111;48.286;7.812;2023-02-28T00:52:28;1.20;49.60
72206;DHT22;60111;48.286;7.812;2023-02-28T00:55:01;1.10;49.90
72206;DHT22;60111;48.286;7.812;2023-02-28T00:57:33;1.10;50.00
72206;DHT22;60111;48.286;7.812;2023-02-28T01:00:07;1.00;50.20
72206;DHT22;60111;48.286;7.812;2023-02-28T01:02:40;1.00;50.60
72206;DHT22;60111;48.286;7.812;2023-02-28T01:05:13;1.00;50.50
72206;DHT22;60111;48.286;7.812;2023-02-28T01:07:46;1.10;50.60
72206;DHT22;60111;48.286;7.812;2023-02-28T01:10:18;1.00;50.50
72206;DHT22;60111;48.286;7.812;2023-02-28T01:12:52;0.90;51.00
72206;DHT22;60111;48.286;7.812;2023-02-28T01:15:24;1.00;50.70
72206;DHT22;60111;48.286;7.812;2023-02-28T01:17:57;1.00;50.70
72206;DHT22;60111;48.286;7.812;2023-02-28T01:20:30;0.90;51.30
72206;DHT22;60111;48.286;7.812;2023-02-28T01:23:03;1.00;51.30
72206;DHT22;60111;48.286;7.812;2023-02-28T01:25:36;1.00;50.90
72206;DHT22;60111;48.286;7.812;2023-02-28T01:28:08;1.00;51.40
72206;DHT22;60111;48.286;7.812;2023-02-28T01:30:41;1.00;51.70
72206;DHT22;60111;48.286;7.812;2023-02-28T01:33:14;1.00;51.30
72206;DHT22;60111;48.286;7.812;2023-02-28T01:35:46;1.00;51.60
72206;DHT22;60111;48.286;7.812;2023-02-28T01:38:19;0.90;51.90
72206;DHT22;60111;48.286;7.812;2023-02-28T01:40:51;0.80;52.10
72206;DHT22;60111;48.286;7.812;2023-02-28T01:43:27;0.80;52.10
72206;DHT22;60111;48.286;7.812;2023-02-28T01:45:59;0.80;52.20
72206;DHT22;60111;48.286;7.812;2023-02-28T01:48:34;0.80;52.40
72206;DHT22;60111;48.286;7.812;2023-02-28T01:51:10;0.80;52.40
72206;DHT22;60111;48.286;7.812;2023-02-28T01:53:49;0.80;52.20
72206;DHT22;60111;48.286;7.812;2023-02-28T01:56:24;0.80;52.50
72206;DHT22;60111;48.286;7.812;2023-02-28T01:58:58;0.90;52.20
72206;DHT22;60111;48.286;7.812;2023-02-28T02:01:31;0.90;52.70
72206;DHT22;60111;48.286;7.812;2023-02-28T02:04:04;0.90;52.60
72206;DHT22;60111;48.286;7.812;2023-02-28T02:06:44;0.80;53.00
72206;DHT22;60111;48.286;7.812;2023-02-28T02:09:18;0.80;53.00
72206;DHT22;60111;48.286;7.812;2023-02-28T02:11:50;0.80;52.90
72206;DHT22;60111;48.286;7.812;2023-02-28T02:15:28;0.80;53.10
72206;DHT22;60111;48.286;7.812;2023-02-28T02:17:36;0.70;53.10
72206;DHT22;60111;48.286;7.812;2023-02-28T02:25:56;0.80;53.60
72206;DHT22;60111;48.286;7.812;2023-02-28T02:31:29;0.80;53.70
72206;DHT22;60111;48.286;7.812;2023-02-28T02:40:20;0.70;54.20
72206;DHT22;60111;48.286;7.812;2023-02-28T02:43:00;0.70;54.40
72206;DHT22;60111;48.286;7.812;2023-02-28T02:45:42;0.70;54.80
72206;DHT22;60111;48.286;7.812;2023-02-28T02:48:17;0.60;54.70
72206;DHT22;60111;48.286;7.812;2023-02-28T02:50:53;0.70;54.50
72206;DHT22;60111;48.286;7.812;2023-02-28T02:53:34;0.60;54.80
72206;DHT22;60111;48.286;7.812;2023-02-28T02:56:04;0.70;54.70
72206;DHT22;60111;48.286;7.812;2023-02-28T02:58:40;0.70;54.90
72206;DHT22;60111;48.286;7.812;2023-02-28T03:01:16;0.70;55.20
72206;DHT22;60111;48.286;7.812;2023-02-28T03:03:51;0.70;54.90
72206;DHT22;60111;48.286;7.812;2023-02-28T03:06:25;0.70;55.10
72206;DHT22;60111;48.286;7.812;2023-02-28T03:08:57;0.70;55.10
72206;DHT22;60111;48.286;7.812;2023-02-28T03:11:32;0.70;55.80
72206;DHT22;60111;48.286;7.812;2023-02-28T03:14:26;0.70;55.80
72206;DHT22;60111;48.286;7.812;2023-02-28T03:26:03;0.60;56.40
72206;DHT22;60111;48.286;7.812;2023-02-28T03:28:42;0.60;56.40
72206;DHT22;60111;48.286;7.812;2023-02-28T03:31:20;0.70;56.60
72206;DHT22;60111;48.286;7.812;2023-02-28T03:34:17;0.60;56.70
72206;DHT22;60111;48.286;7.812;2023-02-28T03:36:53;0.50;56.90
72206;DHT22;60111;48.286;7.812;2023-02-28T03:39:43;0.50;57.10
72206;DHT22;60111;48.286;7.812;2023-02-28T03:42:25;0.60;57.00
72206;DHT22;60111;48.286;7.812;2023-02-28T03:45:02;0.60;57.20
72206;DHT22;60111;48.286;7.812;2023-02-28T03:47:53;0.50;57.30
72206;DHT22;60111;48.286;7.812;2023-02-28T03:50:29;0.50;57.50
72206;DHT22;60111;48.286;7.812;2023-02-28T03:55:47;0.40;57.90
72206;DHT22;60111;48.286;7.812;2023-02-28T04:01:09;0.50;57.70
72206;DHT22;60111;48.286;7.812;2023-02-28T04:03:39;0.50;57.70
72206;DHT22;60111;48.286;7.812;2023-02-28T04:06:20;0.50;58.10
72206;DHT22;60111;48.286;7.812;2023-02-28T04:08:53;0.50;58.50
72206;DHT22;60111;48.286;7.812;2023-02-28T04:11:30;0.50;58.60
72206;DHT22;60111;48.286;7.812;2023-02-28T04:14:03;0.50;58.20
72206;DHT22;60111;48.286;7.812;2023-02-28T04:16:38;0.40;58.40
72206;DHT22;60111;48.286;7.812;2023-02-28T04:19:12;0.40;58.60
72206;DHT22;60111;48.286;7.812;2023-02-28T04:21:47;0.40;58.80
72206;DHT22;60111;48.286;7.812;2023-02-28T04:24:25;0.40;58.80
72206;DHT22;60111;48.286;7.812;2023-02-28T04:26:57;0.40;58.70
72206;DHT22;60111;48.286;7.812;2023-02-28T04:29:31;0.50;58.70
72206;DHT22;60111;48.286;7.812;2023-02-28T04:32:04;0.40;58.80
72206;DHT22;60111;48.286;7.812;2023-02-28T04:34:37;0.50;59.00
72206;DHT22;60111;48.286;7.812;2023-02-28T04:37:09;0.50;58.90
72206;DHT22;60111;48.286;7.812;2023-02-28T04:39:42;0.40;59.20
72206;DHT22;60111;48.286;7.812;2023-02-28T04:42:15;0.40;59.30
72206;DHT22;60111;48.286;7.812;2023-02-28T04:44:48;0.40;59.30
72206;DHT22;60111;48.286;7.812;2023-02-28T04:47:20;0.50;59.00
72206;DHT22;60111;48.286;7.812;2023-02-28T04:49:53;0.40;59.00
72206;DHT22;60111;48.286;7.812;2023-02-28T04:52:27;0.40;59.10
72206;DHT22;60111;48.286;7.812;2023-02-28T04:55:00;0.40;59.20
72206;DHT22;60111;48.286;7.812;2023-02-28T04:57:33;0.40;59.40
72206;DHT22;60111;48.286;7.812;2023-02-28T05:00:06;0.40;59.20
72206;DHT22;60111;48.286;7.812;2023-02-28T05:02:40;0.40;59.30
72206;DHT22;60111;48.286;7.812;2023-02-28T05:05:14;0.30;59.50
72206;DHT22;60111;48.286;7.812;2023-02-28T05:07:48;0.30;59.60
72206;DHT22;60111;48.286;7.812;2023-02-28T05:10:21;0.40;59.40
72206;DHT22;60111;48.286;7.812;2023-02-28T05:12:53;0.40;59.40
72206;DHT22;60111;48.286;7.812;2023-02-28T05:15:26;0.30;59.60
72206;DHT22;60111;48.286;7.812;2023-02-28T05:17:58;0.30;59.60
72206;DHT22;60111;48.286;7.812;2023-02-28T05:20:31;0.30;59.60
72206;DHT22;60111;48.286;7.812;2023-02-28T05:23:04;0.30;59.40
72206;DHT22;60111;48.286;7.812;2023-02-28T05:25:36;0.30;59.90
72206;DHT22;60111;48.286;7.812;2023-02-28T05:28:09;0.20;59.80
72206;DHT22;60111;48.286;7.812;2023-02-28T05:30:41;0.20;59.90
72206;DHT22;60111;48.286;7.812;2023-02-28T05:33:14;0.30;60.10
72206;DHT22;60111;48.286;7.812;2023-02-28T05:35:47;0.30;60.10
72206;DHT22;60111;48.286;7.812;2023-02-28T05:38:19;0.30;60.10
72206;DHT22;60111;48.286;7.812;2023-02-28T05:40:52;0.20;60.20
72206;DHT22;60111;48.286;7.812;2023-02-28T05:43:25;0.30;60.10
72206;DHT22;60111;48.286;7.812;2023-02-28T05:45:57;0.30;60.00
72206;DHT22;60111;48.286;7.812;2023-02-28T05:48:30;0.30;60.10
72206;DHT22;60111;48.286;7.812;2023-02-28T05:51:03;0.30;60.20
72206;DHT22;60111;48.286;7.812;2023-02-28T05:53:36;0.30;60.40
72206;DHT22;60111;48.286;7.812;2023-02-28T05:56:09;0.30;60.10
72206;DHT22;60111;48.286;7.812;2023-02-28T05:58:42;0.30;60.20
72206;DHT22;60111;48.286;7.812;2023-02-28T06:01:38;0.30;60.50
72206;DHT22;60111;48.286;7.812;2023-02-28T06:04:11;0.30;60.40
72206;DHT22;60111;48.286;7.812;2023-02-28T06:06:46;0.30;60.60
72206;DHT22;60111;48.286;7.812;2023-02-28T06:09:19;0.20;60.50
72206;DHT22;60111;48.286;7.812;2023-02-28T06:11:51;0.20;60.70
72206;DHT22;60111;48.286;7.812;2023-02-28T06:14:25;0.30;60.60
72206;DHT22;60111;48.286;7.812;2023-02-28T06:16:59;0.20;60.60
72206;DHT22;60111;48.286;7.812;2023-02-28T06:19:32;0.30;60.60
72206;DHT22;60111;48.286;7.812;2023-02-28T06:22:05;0.20;60.70
72206;DHT22;60111;48.286;7.812;2023-02-28T06:24:37;0.20;60.50
72206;DHT22;60111;48.286;7.812;2023-02-28T06:27:10;0.20;60.60
72206;DHT22;60111;48.286;7.812;2023-02-28T06:29:43;0.30;61.10
72206;DHT22;60111;48.286;7.812;2023-02-28T06:32:15;0.20;60.70
72206;DHT22;60111;48.286;7.812;2023-02-28T06:34:48;0.20;61.00
72206;DHT22;60111;48.286;7.812;2023-02-28T06:37:21;0.30;61.10
72206;DHT22;60111;48.286;7.812;2023-02-28T06:39:56;0.20;60.80
72206;DHT22;60111;48.286;7.812;2023-02-28T06:42:28;0.30;61.10
72206;DHT22;60111;48.286;7.812;2023-02-28T06:45:02;0.30;61.20
72206;DHT22;60111;48.286;7.812;2023-02-28T06:47:40;0.30;61.00
72206;DHT22;60111;48.286;7.812;2023-02-28T06:50:13;0.30;61.30
72206;DHT22;60111;48.286;7.812;2023-02-28T06:52:46;0.30;61.50
72206;DHT22;60111;48.286;7.812;2023-02-28T06:55:19;0.20;61.50
72206;DHT22;60111;48.286;7.812;2023-02-28T06:57:52;0.30;61.60
72206;DHT22;60111;48.286;7.812;2023-02-28T07:00:25;0.20;61.90
72206;DHT22;60111;48.286;7.812;2023-02-28T07:02:58;0.20;62.30
72206;DHT22;60111;48.286;7.812;2023-02-28T07:05:30;0.20;62.10
72206;DHT22;60111;48.286;7.812;2023-02-28T07:08:04;0.30;62.20
72206;DHT22;60111;48.286;7.812;2023-02-28T07:10:37;0.30;62.40
72206;DHT22;60111;48.286;7.812;2023-02-28T07:13:10;0.30;62.00
72206;DHT22;60111;48.286;7.812;2023-02-28T07:15:42;0.30;62.00
72206;DHT22;60111;48.286;7.812;2023-02-28T07:18:15;0.30;62.40
72206;DHT22;60111;48.286;7.812;2023-02-28T07:20:48;0.30;62.40
72206;DHT22;60111;48.286;7.812;2023-02-28T07:23:21;0.30;62.20
72206;DHT22;60111;48.286;7.812;2023-02-28T07:25:53;0.30;62.20
72206;DHT22;60111;48.286;7.812;2023-02-28T07:28:26;0.30;62.20
72206;DHT22;60111;48.286;7.812;2023-02-28T07:31:04;0.30;62.10
72206;DHT22;60111;48.286;7.812;2023-02-28T07:33:37;0.40;62.00
72206;DHT22;60111;48.286;7.812;2023-02-28T07:36:16;0.40;62.10
72206;DHT22;60111;48.286;7.812;2023-02-28T07:38:49;0.50;61.80
72206;DHT22;60111;48.286;7.812;2023-02-28T07:41:22;0.60;61.80
72206;DHT22;60111;48.286;7.812;2023-02-28T07:43:56;0.60;61.60
72206;DHT22;60111;48.286;7.812;2023-02-28T07:46:29;0.70;61.50
72206;DHT22;60111;48.286;7.812;2023-02-28T07:49:04;0.80;61.50
72206;DHT22;60111;48.286;7.812;2023-02-28T07:51:37;0.80;61.10
72206;DHT22;60111;48.286;7.812;2023-02-28T07:54:10;0.80;61.10
72206;DHT22;60111;48.286;7.812;2023-02-28T07:56:42;0.90;61.50
72206;DHT22;60111;48.286;7.812;2023-02-28T07:59:15;1.00;61.70
72206;DHT22;60111;48.286;7.812;2023-02-28T08:01:47;1.10;61.10
72206;DHT22;60111;48.286;7.812;2023-02-28T08:04:21;1.10;60.80
72206;DHT22;60111;48.286;7.812;2023-02-28T08:06:54;1.20;60.70
72206;DHT22;60111;48.286;7.812;2023-02-28T08:09:27;1.30;61.20
72206;DHT22;60111;48.286;7.812;2023-02-28T08:12:01;1.30;60.80
72206;DHT22;60111;48.286;7.812;2023-02-28T08:14:34;1.30;60.90
72206;DHT22;60111;48.286;7.812;2023-02-28T08:17:06;1.30;60.30
72206;DHT22;60111;48.286;7.812;2023-02-28T08:19:39;1.40;60.60
72206;DHT22;60111;48.286;7.812;2023-02-28T08:22:11;1.40;60.70
72206;DHT22;60111;48.286;7.812;2023-02-28T08:24:45;1.40;60.90
72206;DHT22;60111;48.286;7.812;2023-02-28T08:27:18;1.50;61.10
72206;DHT22;60111;48.286;7.812;2023-02-28T08:29:50;1.50;61.00
72206;DHT22;60111;48.286;7.812;2023-02-28T08:32:23;1.50;61.20
72206;DHT22;60111;48.286;7.812;2023-02-28T08:34:55;1.50;61.40
72206;DHT22;60111;48.286;7.812;2023-02-28T08:37:28;1.50;61.10
72206;DHT22;60111;48.286;7.812;2023-02-28T08:40:01;1.50;61.00
72206;DHT22;60111;48.286;7.812;2023-02-28T08:42:36;1.40;61.30
72206;DHT22;60111;48.286;7.812;2023-02-28T08:45:08;1.50;61.20
72206;DHT22;60111;48.286;7.812;2023-02-28T08:47:41;1.50;61.00
72206;DHT22;60111;48.286;7.812;2023-02-28T08:50:14;1.50;60.90
72206;DHT22;60111;48.286;7.812;2023-02-28T08:52:46;1.50;60.80
72206;DHT22;60111;48.286;7.812;2023-02-28T08:55:19;1.60;60.50
72206;DHT22;60111;48.286;7.812;2023-02-28T08:57:52;1.60;60.40
72206;DHT22;60111;48.286;7.812;2023-02-28T09:00:25;1.60;60.70
72206;DHT22;60111;48.286;7.812;2023-02-28T09:02:57;1.50;60.70
72206;DHT22;60111;48.286;7.812;2023-02-28T09:05:30;1.60;60.60
72206;DHT22;60111;48.286;7.812;2023-02-28T09:08:02;1.60;60.50
72206;DHT22;60111;48.286;7.812;2023-02-28T09:10:35;1.60;60.70
72206;DHT22;60111;48.286;7.812;2023-02-28T09:13:07;1.70;60.70
72206;DHT22;60111;48.286;7.812;2023-02-28T09:15:40;1.70;60.40
72206;DHT22;60111;48.286;7.812;2023-02-28T09:18:13;1.70;60.70
72206;DHT22;60111;48.286;7.812;2023-02-28T09:20:46;1.80;60.30
72206;DHT22;60111;48.286;7.812;2023-02-28T09:23:19;1.80;59.90
72206;DHT22;60111;48.286;7.812;2023-02-28T09:25:54;1.80;59.80
72206;DHT22;60111;48.286;7.812;2023-02-28T09:28:27;1.80;60.00
72206;DHT22;60111;48.286;7.812;2023-02-28T09:30:59;1.90;59.90
72206;DHT22;60111;48.286;7.812;2023-02-28T09:33:32;1.80;60.00
72206;DHT22;60111;48.286;7.812;2023-02-28T09:36:06;1.90;59.90
72206;DHT22;60111;48.286;7.812;2023-02-28T09:38:38;1.90;59.90
72206;DHT22;60111;48.286;7.812;2023-02-28T09:41:14;1.90;59.20
72206;DHT22;60111;48.286;7.812;2023-02-28T09:43:53;2.00;59.00
72206;DHT22;60111;48.286;7.812;2023-02-28T09:46:37;2.10;58.70
72206;DHT22;60111;48.286;7.812;2023-02-28T09:49:17;2.10;58.80
72206;DHT22;60111;48.286;7.812;2023-02-28T09:51:55;2.00;59.10
72206;DHT22;60111;48.286;7.812;2023-02-28T09:54:28;2.10;58.90
72206;DHT22;60111;48.286;7.812;2023-02-28T10:05:33;2.10;59.20
72206;DHT22;60111;48.286;7.812;2023-02-28T10:11:06;2.10;59.50
72206;DHT22;60111;48.286;7.812;2023-02-28T10:13:46;2.20;59.00
72206;DHT22;60111;48.286;7.812;2023-02-28T10:16:19;2.20;58.90
72206;DHT22;60111;48.286;7.812;2023-02-28T10:19:15;2.20;58.90
72206;DHT22;60111;48.286;7.812;2023-02-28T10:24:32;2.30;58.80
72206;DHT22;60111;48.286;7.812;2023-02-28T10:27:19;2.20;58.90
72206;DHT22;60111;48.286;7.812;2023-02-28T10:29:54;2.30;59.00
72206;DHT22;60111;48.286;7.812;2023-02-28T10:32:30;2.40;58.50
72206;DHT22;60111;48.286;7.812;2023-02-28T10:35:15;2.40;58.40
72206;DHT22;60111;48.286;7.812;2023-02-28T10:37:53;2.50;57.60
72206;DHT22;60111;48.286;7.812;2023-02-28T10:40:34;2.50;57.30
72206;DHT22;60111;48.286;7.812;2023-02-28T10:46:04;2.50;57.30
72206;DHT22;60111;48.286;7.812;2023-02-28T10:48:45;2.60;57.40
72206;DHT22;60111;48.286;7.812;2023-02-28T10:51:21;2.60;57.50
72206;DHT22;60111;48.286;7.812;2023-02-28T10:53:55;2.70;57.00
72206;DHT22;60111;48.286;7.812;2023-02-28T10:56:29;2.70;56.90
72206;DHT22;60111;48.286;7.812;2023-02-28T10:59:20;2.80;57.10
72206;DHT22;60111;48.286;7.812;2023-02-28T11:01:40;2.80;57.00
72206;DHT22;60111;48.286;7.812;2023-02-28T11:07:22;2.80;56.50
72206;DHT22;60111;48.286;7.812;2023-02-28T11:09:57;2.90;56.00
72206;DHT22;60111;48.286;7.812;2023-02-28T11:12:34;2.90;56.30
72206;DHT22;60111;48.286;7.812;2023-02-28T11:15:21;2.90;56.50
72206;DHT22;60111;48.286;7.812;2023-02-28T11:20:51;2.80;56.30
72206;DHT22;60111;48.286;7.812;2023-02-28T11:23:26;2.90;56.20
72206;DHT22;60111;48.286;7.812;2023-02-28T11:26:02;2.90;55.90
72206;DHT22;60111;48.286;7.812;2023-02-28T11:28:39;2.90;55.60
72206;DHT22;60111;48.286;7.812;2023-02-28T11:33:53;3.00;55.50
72206;DHT22;60111;48.286;7.812;2023-02-28T11:36:29;3.10;54.90
72206;DHT22;60111;48.286;7.812;2023-02-28T11:39:09;3.10;54.90
72206;DHT22;60111;48.286;7.812;2023-02-28T11:42:01;3.00;55.00
72206;DHT22;60111;48.286;7.812;2023-02-28T11:50:01;3.10;55.30
72206;DHT22;60111;48.286;7.812;2023-02-28T12:01:15;3.10;52.80
72206;DHT22;60111;48.286;7.812;2023-02-28T12:04:07;3.10;51.70
72206;DHT22;60111;48.286;7.812;2023-02-28T12:06:56;3.10;52.10
72206;DHT22;60111;48.286;7.812;2023-02-28T12:12:21;3.20;52.20
72206;DHT22;60111;48.286;7.812;2023-02-28T12:15:02;3.30;51.30
72206;DHT22;60111;48.286;7.812;2023-02-28T12:17:38;3.30;52.00
72206;DHT22;60111;48.286;7.812;2023-02-28T12:20:15;3.40;51.80
72206;DHT22;60111;48.286;7.812;2023-02-28T12:28:52;3.50;51.00
72206;DHT22;60111;48.286;7.812;2023-02-28T12:31:40;3.50;52.60
72206;DHT22;60111;48.286;7.812;2023-02-28T12:34:13;3.60;50.80
72206;DHT22;60111;48.286;7.812;2023-02-28T12:36:44;3.60;50.20
72206;DHT22;60111;48.286;7.812;2023-02-28T12:39:26;3.60;50.00
72206;DHT22;60111;48.286;7.812;2023-02-28T12:42:16;3.60;50.50
72206;DHT22;60111;48.286;7.812;2023-02-28T12:44:49;3.50;50.80
72206;DHT22;60111;48.286;7.812;2023-02-28T12:47:23;3.60;50.50
72206;DHT22;60111;48.286;7.812;2023-02-28T12:50:06;3.60;50.70
72206;DHT22;60111;48.286;7.812;2023-02-28T12:55:35;3.80;50.60
72206;DHT22;60111;48.286;7.812;2023-02-28T13:07:35;3.90;50.50
72206;DHT22;60111;48.286;7.812;2023-02-28T13:10:06;4.00;51.10
72206;DHT22;60111;48.286;7.812;2023-02-28T13:12:51;4.10;50.30
72206;DHT22;60111;48.286;7.812;2023-02-28T13:15:26;4.10;49.40
72206;DHT22;60111;48.286;7.812;2023-02-28T13:18:01;4.10;49.60
72206;DHT22;60111;48.286;7.812;2023-02-28T13:20:35;4.10;49.30
72206;DHT22;60111;48.286;7.812;2023-02-28T13:23:35;4.10;49.00
72206;DHT22;60111;48.286;7.812;2023-02-28T13:31:22;4.20;48.90
72206;DHT22;60111;48.286;7.812;2023-02-28T13:36:33;4.20;48.90
72206;DHT22;60111;48.286;7.812;2023-02-28T13:45:21;4.60;48.90
72206;DHT22;60111;48.286;7.812;2023-02-28T13:48:02;4.80;48.30
72206;DHT22;60111;48.286;7.812;2023-02-28T13:50:36;5.00;47.60
72206;DHT22;60111;48.286;7.812;2023-02-28T13:56:09;5.20;47.90
72206;DHT22;60111;48.286;7.812;2023-02-28T14:07:21;5.30;47.10
72206;DHT22;60111;48.286;7.812;2023-02-28T14:10:03;5.20;46.40
72206;DHT22;60111;48.286;7.812;2023-02-28T14:13:12;5.20;47.00
72206;DHT22;60111;48.286;7.812;2023-02-28T14:15:55;5.20;46.90
72206;DHT22;60111;48.286;7.812;2023-02-28T14:18:34;5.10;46.40
72206;DHT22;60111;48.286;7.812;2023-02-28T14:21:27;5.10;46.60
72206;DHT22;60111;48.286;7.812;2023-02-28T14:27:11;5.30;46.70
72206;DHT22;60111;48.286;7.812;2023-02-28T14:32:43;5.30;46.20
72206;DHT22;60111;48.286;7.812;2023-02-28T14:37:58;5.60;45.50
72206;DHT22;60111;48.286;7.812;2023-02-28T14:40:33;5.70;45.20
72206;DHT22;60111;48.286;7.812;2023-02-28T14:43:20;5.80;45.30
72206;DHT22;60111;48.286;7.812;2023-02-28T14:45:42;5.80;44.40
72206;DHT22;60111;48.286;7.812;2023-02-28T14:48:16;5.70;45.30
72206;DHT22;60111;48.286;7.812;2023-02-28T14:50:57;5.80;45.20
72206;DHT22;60111;48.286;7.812;2023-02-28T14:53:28;5.80;44.90
72206;DHT22;60111;48.286;7.812;2023-02-28T14:56:01;5.70;45.00
72206;DHT22;60111;48.286;7.812;2023-02-28T14:58:34;5.50;45.50
72206;DHT22;60111;48.286;7.812;2023-02-28T15:01:09;5.50;46.00
72206;DHT22;60111;48.286;7.812;2023-02-28T15:03:42;5.60;46.30
72206;DHT22;60111;48.286;7.812;2023-02-28T15:06:17;5.60;45.90
72206;DHT22;60111;48.286;7.812;2023-02-28T15:09:15;5.60;46.40
72206;DHT22;60111;48.286;7.812;2023-02-28T15:11:49;5.60;46.50
72206;DHT22;60111;48.286;7.812;2023-02-28T15:14:22;5.70;45.30
72206;DHT22;60111;48.286;7.812;2023-02-28T15:17:00;5.70;45.30
72206;DHT22;60111;48.286;7.812;2023-02-28T15:19:34;5.70;45.30
72206;DHT22;60111;48.286;7.812;2023-02-28T15:22:13;5.60;46.00
72206;DHT22;60111;48.286;7.812;2023-02-28T15:24:50;5.70;46.60
72206;DHT22;60111;48.286;7.812;2023-02-28T15:27:27;5.70;46.50
72206;DHT22;60111;48.286;7.812;2023-02-28T15:30:05;5.70;46.00
72206;DHT22;60111;48.286;7.812;2023-02-28T15:32:39;5.70;46.10
72206;DHT22;60111;48.286;7.812;2023-02-28T15:38:24;5.80;47.40
72206;DHT22;60111;48.286;7.812;2023-02-28T15:40:58;5.90;46.20
72206;DHT22;60111;48.286;7.812;2023-02-28T15:43:33;5.90;46.40
72206;DHT22;60111;48.286;7.812;2023-02-28T15:46:11;5.80;46.50
72206;DHT22;60111;48.286;7.812;2023-02-28T15:48:55;5.80;46.00
72206;DHT22;60111;48.286;7.812;2023-02-28T15:51:36;5.80;46.40
72206;DHT22;60111;48.286;7.812;2023-02-28T15:54:22;5.70;46.50
72206;DHT22;60111;48.286;7.812;2023-02-28T15:56:52;5.80;46.70
72206;DHT22;60111;48.286;7.812;2023-02-28T15:59:28;5.80;46.20
72206;DHT22;60111;48.286;7.812;2023-02-28T16:02:18;5.80;46.30
72206;DHT22;60111;48.286;7.812;2023-02-28T16:04:59;5.80;46.30
72206;DHT22;60111;48.286;7.812;2023-02-28T16:07:41;5.80;46.80
72206;DHT22;60111;48.286;7.812;2023-02-28T16:10:12;5.80;47.00
72206;DHT22;60111;48.286;7.812;2023-02-28T16:12:45;5.80;46.40
72206;DHT22;60111;48.286;7.812;2023-02-28T16:15:21;5.70;46.90
72206;DHT22;60111;48.286;7.812;2023-02-28T16:17:54;5.70;46.40
72206;DHT22;60111;48.286;7.812;2023-02-28T16:20:29;5.70;46.80
72206;DHT22;60111;48.286;7.812;2023-02-28T16:23:02;5.70;46.70
72206;DHT22;60111;48.286;7.812;2023-02-28T16:25:40;5.60;47.10
72206;DHT22;60111;48.286;7.812;2023-02-28T16:28:18;5.60;47.30
72206;DHT22;60111;48.286;7.812;2023-02-28T16:30:52;5.50;46.90
72206;DHT22;60111;48.286;7.812;2023-02-28T16:33:24;5.40;47.30
72206;DHT22;60111;48.286;7.812;2023-02-28T16:35:57;5.40;47.30
72206;DHT22;60111;48.286;7.812;2023-02-28T16:38:30;5.30;47.50
72206;DHT22;60111;48.286;7.812;2023-02-28T16:41:02;5.20;47.80
72206;DHT22;60111;48.286;7.812;2023-02-28T16:43:35;5.20;48.30
72206;DHT22;60111;48.286;7.812;2023-02-28T16:46:10;5.30;48.30
72206;DHT22;60111;48.286;7.812;2023-02-28T16:48:44;5.20;48.40
72206;DHT22;60111;48.286;7.812;2023-02-28T16:51:17;5.10;48.90
72206;DHT22;60111;48.286;7.812;2023-02-28T16:53:50;5.00;49.30
72206;DHT22;60111;48.286;7.812;2023-02-28T16:56:24;5.00;49.20
72206;DHT22;60111;48.286;7.812;2023-02-28T16:58:58;4.90;49.20
72206;DHT22;60111;48.286;7.812;2023-02-28T17:01:30;4.80;49.40
72206;DHT22;60111;48.286;7.812;2023-02-28T17:04:03;4.80;49.80
72206;DHT22;60111;48.286;7.812;2023-02-28T17:06:36;4.70;50.30
72206;DHT22;60111;48.286;7.812;2023-02-28T17:09:21;4.60;50.70
72206;DHT22;60111;48.286;7.812;2023-02-28T17:11:47;4.60;50.90
72206;DHT22;60111;48.286;7.812;2023-02-28T17:14:19;4.50;51.10
72206;DHT22;60111;48.286;7.812;2023-02-28T17:16:52;4.50;51.50
72206;DHT22;60111;48.286;7.812;2023-02-28T17:19:25;4.40;51.60
72206;DHT22;60111;48.286;7.812;2023-02-28T17:21:57;4.30;51.50
72206;DHT22;60111;48.286;7.812;2023-02-28T17:24:30;4.20;51.60
72206;DHT22;60111;48.286;7.812;2023-02-28T17:27:03;4.20;51.50
72206;DHT22;60111;48.286;7.812;2023-02-28T17:29:36;4.10;51.80
72206;DHT22;60111;48.286;7.812;2023-02-28T17:32:08;4.00;52.50
72206;DHT22;60111;48.286;7.812;2023-02-28T17:34:41;4.00;52.60
72206;DHT22;60111;48.286;7.812;2023-02-28T17:37:15;4.00;53.00
72206;DHT22;60111;48.286;7.812;2023-02-28T17:39:47;3.80;52.90
72206;DHT22;60111;48.286;7.812;2023-02-28T17:42:20;3.80;52.70
72206;DHT22;60111;48.286;7.812;2023-02-28T17:44:52;3.70;53.20
72206;DHT22;60111;48.286;7.812;2023-02-28T17:47:25;3.60;53.90
72206;DHT22;60111;48.286;7.812;2023-02-28T17:49:57;3.50;54.10
72206;DHT22;60111;48.286;7.812;2023-02-28T17:52:30;3.40;54.60
72206;DHT22;60111;48.286;7.812;2023-02-28T17:55:04;3.20;54.90
72206;DHT22;60111;48.286;7.812;2023-02-28T17:57:36;3.10;55.40
72206;DHT22;60111;48.286;7.812;2023-02-28T18:00:11;3.00;55.60
72206;DHT22;60111;48.286;7.812;2023-02-28T18:02:45;3.00;55.90
72206;DHT22;60111;48.286;7.812;2023-02-28T18:05:17;2.80;56.50
72206;DHT22;60111;48.286;7.812;2023-02-28T18:07:50;2.80;57.00
72206;DHT22;60111;48.286;7.812;2023-02-28T18:10:23;2.70;57.40
72206;DHT22;60111;48.286;7.812;2023-02-28T18:12:56;2.70;57.90
72206;DHT22;60111;48.286;7.812;2023-02-28T18:15:28;2.60;58.20
72206;DHT22;60111;48.286;7.812;2023-02-28T18:18:01;2.50;58.40
72206;DHT22;60111;48.286;7.812;2023-02-28T18:20:34;2.40;59.00
72206;DHT22;60111;48.286;7.812;2023-02-28T18:23:07;2.30;59.00
72206;DHT22;60111;48.286;7.812;2023-02-28T18:25:40;2.30;59.20
72206;DHT22;60111;48.286;7.812;2023-02-28T18:28:12;2.20;59.50
72206;DHT22;60111;48.286;7.812;2023-02-28T18:30:45;2.10;59.50
72206;DHT22;60111;48.286;7.812;2023-02-28T18:33:17;2.10;59.80
72206;DHT22;60111;48.286;7.812;2023-02-28T18:35:55;2.00;59.80
72206;DHT22;60111;48.286;7.812;2023-02-28T18:38:28;1.90;60.00
72206;DHT22;60111;48.286;7.812;2023-02-28T18:41:03;1.90;60.30
72206;DHT22;60111;48.286;7.812;2023-02-28T18:43:36;1.80;60.60